Time;durP1;ratioP1;P1;durP2;ratioP2;P2;SDS_P1;SDS_P2;PMS_P1;PMS_P2;Temp;Humidity;BMP_temperature;BMP_pressure;BME280_temperature;BME280_humidity;BME280_pressure;Samples;Min_cycle;Max_cycle;Signal;HPM_P1;HPM_P2
2023/05/31 00:00:58;;;;;;;5.60;3.13;;;;;;;;;;5112304;28;20120;-72
2023/05/31 00:03:40;;;;;;;8.18;3.60;;;;;;;;;;5112604;28;20469;-73
2023/05/31 00:06:15;;;;;;;9.70;3.83;;;;;;;;;;5112551;28;20421;-72
2023/05/31 00:09:02;;;;;;;9.75;3.67;;;;;;;;;;5112379;28;20015;-72
2023/05/31 00:11:38;;;;;;;7.80;3.67;;;;;;;;;;5112623;28;20023;-72
2023/05/31 00:14:03;;;;;;;15.55;3.80;;;;;;;;;;5110687;28;20051;-73
2023/05/31 00:16:29;;;;;;;11.93;4.00;;;;;;;;;;5113862;28;20052;-72
2023/05/31 00:18:57;;;;;;;9.82;3.38;;;;;;;;;;5113554;28;20018;-72
2023/05/31 00:21:23;;;;;;;7.40;3.45;;;;;;;;;;5112798;28;20102;-73
2023/05/31 00:23:49;;;;;;;8.07;3.42;;;;;;;;;;5113600;28;20020;-73
2023/05/31 00:26:14;;;;;;;12.45;4.25;;;;;;;;;;5095567;28;20024;-74
2023/05/31 00:28:40;;;;;;;13.80;4.68;;;;;;;;;;5113379;28;20058;-73
2023/05/31 00:31:07;;;;;;;14.15;4.85;;;;;;;;;;5113623;28;20023;-73
2023/05/31 00:33:33;;;;;;;7.20;3.60;;;;;;;;;;5113655;28;20047;-72
2023/05/31 00:35:59;;;;;;;10.40;4.00;;;;;;;;;;5113377;28;20384;-73
2023/05/31 00:38:25;;;;;;;11.18;3.60;;;;;;;;;;5112261;28;20038;-73
2023/05/31 00:40:51;;;;;;;9.88;3.40;;;;;;;;;;5113325;28;20091;-72
2023/05/31 00:43:17;;;;;;;12.82;3.83;;;;;;;;;;5113254;28;20476;-72
2023/05/31 00:45:43;;;;;;;8.77;3.88;;;;;;;;;;5113477;28;20051;-73
2023/05/31 00:48:09;;;;;;;10.65;4.18;;;;;;;;;;5113461;28;20023;-72
2023/05/31 00:50:36;;;;;;;10.73;3.92;;;;;;;;;;5094969;28;20011;-73
2023/05/31 00:53:03;;;;;;;11.88;4.68;;;;;;;;;;5112396;28;20073;-73
2023/05/31 00:55:31;;;;;;;8.50;4.10;;;;;;;;;;5094919;28;20015;-73
2023/05/31 00:58:04;;;;;;;12.88;4.15;;;;;;;;;;5096345;28;20024;-73
2023/05/31 01:00:38;;;;;;;12.07;4.40;;;;;;;;;;5116590;28;20511;-73
2023/05/31 01:03:06;;;;;;;8.52;4.00;;;;;;;;;;5117286;28;20047;-73
2023/05/31 01:05:32;;;;;;;5.65;3.90;;;;;;;;;;5116769;28;20069;-73
2023/05/31 01:07:57;;;;;;;11.10;3.85;;;;;;;;;;5116729;28;20015;-73
2023/05/31 01:10:23;;;;;;;14.40;3.78;;;;;;;;;;5116952;28;20027;-74
2023/05/31 01:13:15;;;;;;;13.60;4.22;;;;;;;;;;5116829;28;20007;-73
2023/05/31 01:15:46;;;;;;;11.13;3.58;;;;;;;;;;5095344;28;20043;-72
2023/05/31 01:18:18;;;;;;;7.77;4.00;;;;;;;;;;5098623;28;20101;-73
2023/05/31 01:20:46;;;;;;;7.50;3.33;;;;;;;;;;5116433;28;20368;-73
2023/05/31 01:23:32;;;;;;;10.55;3.95;;;;;;;;;;5098631;28;20575;-73
2023/05/31 01:26:06;;;;;;;11.80;4.25;;;;;;;;;;5115670;28;20097;-72
2023/05/31 01:28:37;;;;;;;6.82;3.67;;;;;;;;;;5116608;28;20533;-72
2023/05/31 01:31:06;;;;;;;7.97;3.40;;;;;;;;;;5116328;28;20015;-72
2023/05/31 01:33:34;;;;;;;5.90;3.42;;;;;;;;;;5116335;28;20020;-72
2023/05/31 01:36:00;;;;;;;8.90;3.60;;;;;;;;;;5097761;28;20038;-73
2023/05/31 01:38:26;;;;;;;10.88;3.95;;;;;;;;;;5115284;28;20024;-72
2023/05/31 01:40:55;;;;;;;10.25;5.18;;;;;;;;;;5115275;28;20096;-72
2023/05/31 01:43:22;;;;;;;7.22;3.72;;;;;;;;;;5114870;28;20023;-73
2023/05/31 01:46:09;;;;;;;7.68;3.63;;;;;;;;;;5115132;28;20063;-72
2023/05/31 01:48:34;;;;;;;7.07;3.85;;;;;;;;;;5115144;28;20022;-73
2023/05/31 01:51:08;;;;;;;9.38;3.60;;;;;;;;;;5114246;28;20028;-72
2023/05/31 01:53:37;;;;;;;10.15;3.85;;;;;;;;;;5097129;28;20069;-73
2023/05/31 01:56:04;;;;;;;9.02;4.32;;;;;;;;;;5096666;28;20024;-72
2023/05/31 01:58:33;;;;;;;5.35;3.40;;;;;;;;;;5114991;28;20532;-73
2023/05/31 02:01:00;;;;;;;10.55;4.20;;;;;;;;;;5114571;28;20055;-73
2023/05/31 02:03:47;;;;;;;6.82;4.30;;;;;;;;;;5114614;28;20483;-73
2023/05/31 02:06:12;;;;;;;11.70;4.38;;;;;;;;;;5114726;28;20023;-72
2023/05/31 02:08:42;;;;;;;10.80;4.10;;;;;;;;;;5114990;28;20077;-74
2023/05/31 02:11:09;;;;;;;9.18;3.85;;;;;;;;;;5098010;28;20020;-73
2023/05/31 02:13:35;;;;;;;11.27;3.65;;;;;;;;;;5115534;28;20054;-73
2023/05/31 02:16:03;;;;;;;11.05;3.10;;;;;;;;;;5097380;28;20024;-73
2023/05/31 02:18:28;;;;;;;7.95;4.07;;;;;;;;;;5115501;28;20026;-72
2023/05/31 02:20:55;;;;;;;7.47;4.07;;;;;;;;;;5097291;28;20023;-73
2023/05/31 02:23:22;;;;;;;11.20;4.13;;;;;;;;;;5097321;28;20024;-72
2023/05/31 02:25:48;;;;;;;10.88;3.97;;;;;;;;;;5096998;28;20031;-73
2023/05/31 02:28:15;;;;;;;9.93;3.60;;;;;;;;;;5097109;28;20049;-73
2023/05/31 02:31:00;;;;;;;7.60;3.75;;;;;;;;;;5097217;28;20459;-72
2023/05/31 02:33:25;;;;;;;13.07;4.13;;;;;;;;;;5115233;28;20023;-72
2023/05/31 02:35:52;;;;;;;13.88;5.32;;;;;;;;;;5115465;28;20420;-73
2023/05/31 02:38:19;;;;;;;8.82;4.43;;;;;;;;;;5097046;28;20031;-73
2023/05/31 02:40:45;;;;;;;10.00;3.50;;;;;;;;;;5114973;28;20020;-73
2023/05/31 02:43:11;;;;;;;7.85;3.83;;;;;;;;;;5115198;28;20062;-73
2023/05/31 02:45:39;;;;;;;9.65;3.47;;;;;;;;;;5115113;28;20019;-73
2023/05/31 02:48:05;;;;;;;14.00;4.05;;;;;;;;;;5114817;28;20035;-73
2023/05/31 02:50:30;;;;;;;11.68;4.65;;;;;;;;;;5114931;28;20015;-73
2023/05/31 02:52:56;;;;;;;7.85;3.50;;;;;;;;;;5096650;28;20026;-73
2023/05/31 02:55:22;;;;;;;8.30;3.83;;;;;;;;;;5096728;28;20037;-72
2023/05/31 02:57:50;;;;;;;8.73;3.97;;;;;;;;;;5115009;28;20043;-73
2023/05/31 03:00:17;;;;;;;6.82;3.47;;;;;;;;;;5114455;28;20090;-73
2023/05/31 03:02:43;;;;;;;11.90;3.70;;;;;;;;;;5096441;28;20456;-74
2023/05/31 03:05:10;;;;;;;8.25;3.60;;;;;;;;;;5114832;28;20031;-73
2023/05/31 03:07:40;;;;;;;9.98;4.63;;;;;;;;;;5114436;28;20039;-73
2023/05/31 03:10:07;;;;;;;7.55;3.85;;;;;;;;;;5115108;28;20106;-73
2023/05/31 03:12:34;;;;;;;8.65;3.97;;;;;;;;;;5114292;28;20034;-73
2023/05/31 03:15:00;;;;;;;10.40;4.63;;;;;;;;;;5113669;28;20140;-73
2023/05/31 03:17:26;;;;;;;7.15;4.00;;;;;;;;;;5114194;28;20452;-73
2023/05/31 03:19:53;;;;;;;10.95;3.80;;;;;;;;;;5114356;28;20074;-74
2023/05/31 03:22:20;;;;;;;6.93;3.47;;;;;;;;;;5114177;28;20072;-73
2023/05/31 03:24:48;;;;;;;11.15;4.35;;;;;;;;;;5114371;28;20058;-73
2023/05/31 03:27:14;;;;;;;6.90;3.92;;;;;;;;;;5114533;28;20144;-73
2023/05/31 03:29:55;;;;;;;12.00;4.80;;;;;;;;;;5113896;28;20454;-73
2023/05/31 03:32:20;;;;;;;9.00;3.97;;;;;;;;;;5114118;28;20020;-74
2023/05/31 03:34:46;;;;;;;8.05;4.10;;;;;;;;;;5113700;28;20035;-73
2023/05/31 03:37:13;;;;;;;9.77;4.97;;;;;;;;;;5096042;28;20034;-73
2023/05/31 03:39:41;;;;;;;12.43;4.00;;;;;;;;;;5114288;28;20141;-72
2023/05/31 03:42:21;;;;;;;8.32;3.95;;;;;;;;;;5114025;28;20042;-73
2023/05/31 03:44:47;;;;;;;9.32;3.72;;;;;;;;;;5113620;28;20460;-73
2023/05/31 03:47:14;;;;;;;10.45;4.50;;;;;;;;;;5112747;28;20484;-73
2023/05/31 03:49:40;;;;;;;7.30;3.97;;;;;;;;;;5095643;28;20055;-73
2023/05/31 03:52:08;;;;;;;6.95;4.63;;;;;;;;;;5114123;28;20057;-75
2023/05/31 03:54:36;;;;;;;9.43;4.95;;;;;;;;;;5113679;28;20024;-73
2023/05/31 03:57:04;;;;;;;13.27;5.10;;;;;;;;;;5114342;28;20031;-73
2023/05/31 03:59:29;;;;;;;19.27;5.05;;;;;;;;;;5113020;28;20048;-73
2023/05/31 04:01:55;;;;;;;10.15;5.13;;;;;;;;;;5113868;28;20084;-73
2023/05/31 04:04:29;;;;;;;11.30;5.13;;;;;;;;;;5113823;28;20024;-74
2023/05/31 04:06:54;;;;;;;8.27;5.05;;;;;;;;;;5113658;28;20110;-74
2023/05/31 04:09:23;;;;;;;10.10;5.00;;;;;;;;;;5113658;28;20055;-74
2023/05/31 04:11:49;;;;;;;9.98;4.82;;;;;;;;;;5113927;28;20109;-75
2023/05/31 04:14:15;;;;;;;11.45;5.13;;;;;;;;;;5095322;28;20020;-73
2023/05/31 04:16:41;;;;;;;8.15;4.93;;;;;;;;;;5113830;28;20020;-74
2023/05/31 04:19:07;;;;;;;14.80;5.22;;;;;;;;;;5113676;28;20020;-72
2023/05/31 04:21:33;;;;;;;14.75;5.22;;;;;;;;;;5095311;28;20031;-73
2023/05/31 04:23:59;;;;;;;13.75;4.93;;;;;;;;;;5113690;28;20057;-73
2023/05/31 04:26:25;;;;;;;9.07;4.72;;;;;;;;;;5113486;28;20073;-74
2023/05/31 04:28:53;;;;;;;12.85;5.20;;;;;;;;;;5095550;28;20028;-72
2023/05/31 04:31:19;;;;;;;13.02;5.30;;;;;;;;;;5113184;28;20099;-73
2023/05/31 04:33:45;;;;;;;14.88;5.32;;;;;;;;;;5097265;28;20054;-74
2023/05/31 04:36:11;;;;;;;11.30;5.57;;;;;;;;;;5117291;28;20034;-73
2023/05/31 04:38:39;;;;;;;10.15;4.82;;;;;;;;;;5115894;28;20475;-74
2023/05/31 04:41:06;;;;;;;15.30;5.22;;;;;;;;;;5116217;28;20035;-73
2023/05/31 04:43:32;;;;;;;12.35;5.22;;;;;;;;;;5116729;28;20418;-74
2023/05/31 04:46:00;;;;;;;13.10;5.35;;;;;;;;;;5098247;28;20544;-74
2023/05/31 04:48:29;;;;;;;14.57;5.13;;;;;;;;;;5117354;28;20020;-72
2023/05/31 04:50:55;;;;;;;11.73;5.47;;;;;;;;;;5116954;28;20065;-72
2023/05/31 04:53:24;;;;;;;12.50;5.45;;;;;;;;;;5117346;28;20051;-72
2023/05/31 04:55:51;;;;;;;10.73;5.20;;;;;;;;;;5117177;28;20410;-72
2023/05/31 04:58:19;;;;;;;11.65;5.35;;;;;;;;;;5118077;28;20024;-76
2023/05/31 05:00:54;;;;;;;11.88;5.22;;;;;;;;;;5081941;28;20058;-75
2023/05/31 05:03:24;;;;;;;8.00;4.68;;;;;;;;;;5076731;28;20025;-72
2023/05/31 05:05:50;;;;;;;10.73;5.82;;;;;;;;;;5076417;28;20162;-72
2023/05/31 05:08:17;;;;;;;10.73;4.40;;;;;;;;;;5075353;28;20090;-75
2023/05/31 05:10:44;;;;;;;11.75;4.90;;;;;;;;;;5076486;28;20021;-79
2023/05/31 05:13:10;;;;;;;11.25;4.10;;;;;;;;;;5076878;28;20024;-77
2023/05/31 05:15:35;;;;;;;11.90;4.43;;;;;;;;;;5076531;28;20453;-75
2023/05/31 05:18:00;;;;;;;8.98;4.43;;;;;;;;;;5075538;28;20151;-74
2023/05/31 05:20:47;;;;;;;7.40;4.25;;;;;;;;;;5074735;28;20028;-69
2023/05/31 05:23:19;;;;;;;7.10;3.67;;;;;;;;;;5075359;28;20025;-70
2023/05/31 05:25:45;;;;;;;10.07;4.68;;;;;;;;;;5076112;28;20153;-72
2023/05/31 05:28:18;;;;;;;9.85;4.18;;;;;;;;;;5076013;28;20078;-72
2023/05/31 05:30:44;;;;;;;6.45;4.18;;;;;;;;;;5076187;28;20048;-71
2023/05/31 05:33:11;;;;;;;11.30;4.95;;;;;;;;;;5076375;28;20048;-72
2023/05/31 05:35:36;;;;;;;11.00;4.35;;;;;;;;;;5076203;28;20047;-72
2023/05/31 05:38:03;;;;;;;10.00;4.68;;;;;;;;;;5078248;28;20032;-77
2023/05/31 05:40:29;;;;;;;6.90;3.95;;;;;;;;;;5077413;28;20029;-72
2023/05/31 05:42:54;;;;;;;8.57;3.67;;;;;;;;;;5074035;28;20066;-74
2023/05/31 05:45:19;;;;;;;11.45;4.07;;;;;;;;;;5074466;28;20537;-73
2023/05/31 05:47:45;;;;;;;7.88;4.15;;;;;;;;;;5074462;28;20082;-74
2023/05/31 05:50:32;;;;;;;10.30;4.72;;;;;;;;;;5073092;28;20021;-73
2023/05/31 05:52:57;;;;;;;12.32;3.47;;;;;;;;;;5074328;28;20074;-74
2023/05/31 05:55:22;;;;;;;8.63;3.90;;;;;;;;;;5073409;28;20028;-73
2023/05/31 05:57:48;;;;;;;6.07;3.17;;;;;;;;;;5074140;28;20278;-73
2023/05/31 06:00:16;;;;;;;8.15;3.50;;;;;;;;;;5096355;28;20329;-73
2023/05/31 06:02:44;;;;;;;10.60;3.83;;;;;;;;;;5115413;28;20032;-73
2023/05/31 06:05:09;;;;;;;7.90;3.45;;;;;;;;;;5114507;28;20027;-73
2023/05/31 06:07:49;;;;;;;9.38;3.95;;;;;;;;;;5114673;28;20024;-72
2023/05/31 06:10:15;;;;;;;9.57;3.30;;;;;;;;;;5115285;28;20045;-72
2023/05/31 06:12:40;;;;;;;8.25;3.17;;;;;;;;;;5080652;28;20072;-74
2023/05/31 06:15:07;;;;;;;17.00;4.10;;;;;;;;;;5115813;28;20024;-73
2023/05/31 06:17:33;;;;;;;12.00;3.70;;;;;;;;;;5115696;28;20032;-72
2023/05/31 06:19:59;;;;;;;9.10;3.65;;;;;;;;;;5114255;28;20082;-73
2023/05/31 06:22:24;;;;;;;9.13;3.20;;;;;;;;;;5115593;28;20490;-74
2023/05/31 06:24:51;;;;;;;7.83;3.00;;;;;;;;;;5097206;28;20057;-74
2023/05/31 06:27:17;;;;;;;6.78;3.28;;;;;;;;;;5115881;28;20024;-74
2023/05/31 06:29:43;;;;;;;6.95;2.92;;;;;;;;;;5115449;28;20043;-74
2023/05/31 06:32:08;;;;;;;10.53;3.47;;;;;;;;;;5115897;28;20376;-74
2023/05/31 06:34:34;;;;;;;10.07;3.00;;;;;;;;;;5115052;28;20028;-73
2023/05/31 06:37:14;;;;;;;5.28;3.05;;;;;;;;;;5097779;28;20055;-73
2023/05/31 06:39:40;;;;;;;9.38;2.75;;;;;;;;;;5114447;28;20042;-72
2023/05/31 06:42:07;;;;;;;9.38;2.92;;;;;;;;;;5114020;28;20042;-72
2023/05/31 06:44:32;;;;;;;6.68;3.47;;;;;;;;;;5115289;28;20062;-72
2023/05/31 06:46:57;;;;;;;6.23;2.70;;;;;;;;;;5096930;28;20067;-73
2023/05/31 06:49:23;;;;;;;6.93;2.73;;;;;;;;;;5114931;28;20024;-73
2023/05/31 06:51:51;;;;;;;8.30;3.05;;;;;;;;;;5114558;28;20019;-73
2023/05/31 06:54:16;;;;;;;6.03;2.85;;;;;;;;;;5096393;28;20104;-72
2023/05/31 06:56:42;;;;;;;7.07;2.70;;;;;;;;;;5114302;28;20139;-72
2023/05/31 06:59:09;;;;;;;6.40;2.65;;;;;;;;;;5113532;28;20115;-73
2023/05/31 07:01:40;;;;;;;6.65;3.45;;;;;;;;;;5114877;28;20102;-73
2023/05/31 07:04:06;;;;;;;5.38;2.83;;;;;;;;;;5114594;28;20034;-73
2023/05/31 07:06:35;;;;;;;6.47;2.50;;;;;;;;;;5114416;28;20077;-74
2023/05/31 07:09:00;;;;;;;7.32;2.60;;;;;;;;;;5114532;28;20020;-72
2023/05/31 07:11:27;;;;;;;4.43;2.70;;;;;;;;;;5096424;28;20030;-73
2023/05/31 07:13:59;;;;;;;3.47;2.58;;;;;;;;;;5114628;28;20362;-73
2023/05/31 07:16:24;;;;;;;5.63;2.35;;;;;;;;;;5114680;28;20016;-73
2023/05/31 07:18:50;;;;;;;6.05;2.45;;;;;;;;;;5079152;28;20128;-73
2023/05/31 07:21:16;;;;;;;6.67;3.30;;;;;;;;;;5114201;28;20410;-73
2023/05/31 07:23:41;;;;;;;3.80;2.40;;;;;;;;;;5114206;28;20280;-73
2023/05/31 07:26:08;;;;;;;7.55;3.30;;;;;;;;;;5114372;28;20090;-73
2023/05/31 07:28:33;;;;;;;7.65;2.47;;;;;;;;;;5110191;28;20139;-73
2023/05/31 07:31:01;;;;;;;6.18;3.00;;;;;;;;;;5114732;28;20047;-73
2023/05/31 07:33:26;;;;;;;9.88;2.70;;;;;;;;;;5095809;28;20464;-72
2023/05/31 07:35:51;;;;;;;6.77;2.80;;;;;;;;;;5114536;28;20024;-73
2023/05/31 07:38:17;;;;;;;8.00;2.30;;;;;;;;;;5120033;28;20051;-75
2023/05/31 07:40:44;;;;;;;6.78;2.50;;;;;;;;;;5125822;28;20058;-74
2023/05/31 07:43:11;;;;;;;5.85;2.60;;;;;;;;;;5126164;28;20016;-75
2023/05/31 07:45:41;;;;;;;5.43;2.47;;;;;;;;;;5129591;28;20034;-74
2023/05/31 07:48:06;;;;;;;3.97;1.90;;;;;;;;;;5130518;28;20016;-73
2023/05/31 07:50:31;;;;;;;4.30;2.40;;;;;;;;;;5129988;28;20045;-74
2023/05/31 07:52:57;;;;;;;3.43;2.00;;;;;;;;;;5130556;28;20017;-75
2023/05/31 07:55:24;;;;;;;4.13;1.83;;;;;;;;;;5130609;28;20095;-73
2023/05/31 07:57:51;;;;;;;4.00;2.08;;;;;;;;;;5114737;28;20031;-75
2023/05/31 08:00:18;;;;;;;5.70;1.75;;;;;;;;;;5130010;28;20039;-75
2023/05/31 08:02:44;;;;;;;5.47;2.22;;;;;;;;;;5114090;28;20341;-76
2023/05/31 08:05:09;;;;;;;5.13;1.75;;;;;;;;;;5115138;28;20028;-78
2023/05/31 08:07:35;;;;;;;5.15;1.67;;;;;;;;;;5135494;28;20019;-76
2023/05/31 08:10:01;;;;;;;3.28;1.65;;;;;;;;;;5120929;28;20027;-76
2023/05/31 08:12:27;;;;;;;2.00;1.48;;;;;;;;;;5120803;28;20127;-78
2023/05/31 08:14:53;;;;;;;6.10;1.70;;;;;;;;;;5121296;28;20023;-76
2023/05/31 08:17:18;;;;;;;3.00;1.35;;;;;;;;;;5120034;28;20031;-75
2023/05/31 08:19:45;;;;;;;5.13;1.70;;;;;;;;;;5120777;28;20011;-75
2023/05/31 08:22:11;;;;;;;2.33;1.75;;;;;;;;;;5120830;28;20015;-75
2023/05/31 08:24:39;;;;;;;3.55;1.52;;;;;;;;;;5121062;28;20020;-76
2023/05/31 08:27:05;;;;;;;1.80;0.85;;;;;;;;;;5102421;28;20024;-73
2023/05/31 08:29:33;;;;;;;4.30;1.58;;;;;;;;;;5120874;28;20023;-74
2023/05/31 08:31:58;;;;;;;7.93;2.38;;;;;;;;;;5123220;28;20035;-73
2023/05/31 08:34:27;;;;;;;6.65;1.80;;;;;;;;;;5087914;28;20027;-75
2023/05/31 08:37:00;;;;;;;7.10;2.00;;;;;;;;;;5121809;28;20460;-75
2023/05/31 08:39:27;;;;;;;4.53;1.77;;;;;;;;;;5120459;28;20016;-76
2023/05/31 08:41:58;;;;;;;7.93;2.00;;;;;;;;;;5120255;28;20028;-71
2023/05/31 08:44:23;;;;;;;5.05;1.42;;;;;;;;;;5119902;28;20024;-70
2023/05/31 08:46:50;;;;;;;2.90;1.75;;;;;;;;;;5084877;28;20038;-69
2023/05/31 08:49:18;;;;;;;2.33;1.30;;;;;;;;;;5119990;28;20409;-69
2023/05/31 08:51:45;;;;;;;3.97;1.60;;;;;;;;;;5101990;28;20055;-70
2023/05/31 08:54:11;;;;;;;2.55;1.20;;;;;;;;;;5119887;28;20020;-71
2023/05/31 08:56:38;;;;;;;5.63;1.77;;;;;;;;;;5101893;28;20027;-71
2023/05/31 08:59:08;;;;;;;4.47;1.48;;;;;;;;;;5101168;28;20383;-73
2023/05/31 09:01:35;;;;;;;4.32;1.52;;;;;;;;;;5120042;28;20023;-72
2023/05/31 09:04:09;;;;;;;4.28;1.58;;;;;;;;;;5119894;28;20027;-70
2023/05/31 09:06:35;;;;;;;5.20;1.55;;;;;;;;;;5119863;28;20085;-69
2023/05/31 09:09:00;;;;;;;12.13;2.10;;;;;;;;;;5120007;28;20540;-72
2023/05/31 09:11:37;;;;;;;6.47;1.58;;;;;;;;;;5101532;28;20789;-72
2023/05/31 09:14:03;;;;;;;3.75;1.38;;;;;;;;;;5119847;28;20012;-72
2023/05/31 09:16:29;;;;;;;1.65;1.33;;;;;;;;;;5101458;28;20028;-72
2023/05/31 09:19:02;;;;;;;3.58;1.52;;;;;;;;;;5116740;28;20074;-72
2023/05/31 09:21:29;;;;;;;3.75;1.52;;;;;;;;;;5116779;28;20019;-72
2023/05/31 09:23:59;;;;;;;2.72;1.40;;;;;;;;;;5098178;28;20016;-73
2023/05/31 09:26:25;;;;;;;3.58;1.40;;;;;;;;;;5099497;28;20106;-78
2023/05/31 09:28:52;;;;;;;4.40;1.70;;;;;;;;;;5118594;28;20035;-75
2023/05/31 09:31:27;;;;;;;3.17;1.48;;;;;;;;;;5117997;28;20076;-75
2023/05/31 09:33:54;;;;;;;6.10;1.50;;;;;;;;;;5117628;28;20084;-76
2023/05/31 09:36:29;;;;;;;4.13;1.58;;;;;;;;;;5116620;28;20082;-75
2023/05/31 09:39:00;;;;;;;7.38;1.85;;;;;;;;;;5117006;28;20035;-76
2023/05/31 09:41:25;;;;;;;;;;;;;;;;;;5099384;28;20074;-76
2023/05/31 09:43:52;;;;;;;6.18;1.83;;;;;;;;;;5116434;28;19908;-75
2023/05/31 09:46:19;;;;;;;2.70;1.70;;;;;;;;;;5115601;28;20039;-76
2023/05/31 09:48:45;;;;;;;5.35;1.83;;;;;;;;;;5097918;28;20020;-75
2023/05/31 09:51:11;;;;;;;7.25;1.85;;;;;;;;;;5097923;28;20030;-76
2023/05/31 09:53:44;;;;;;;6.47;2.33;;;;;;;;;;5081230;28;20024;-78
2023/05/31 09:56:23;;;;;;;5.10;1.77;;;;;;;;;;5098050;28;20476;-77
2023/05/31 09:58:50;;;;;;;6.13;1.70;;;;;;;;;;5098579;28;20018;-77
2023/05/31 10:01:19;;;;;;;6.78;1.92;;;;;;;;;;5097989;28;20122;-76
2023/05/31 10:03:44;;;;;;;2.55;1.58;;;;;;;;;;5097707;28;20026;-77
2023/05/31 10:06:13;;;;;;;5.15;1.58;;;;;;;;;;5097754;28;20032;-77
2023/05/31 10:08:39;;;;;;;5.68;1.88;;;;;;;;;;5115842;28;20375;-76
2023/05/31 10:11:13;;;;;;;4.05;1.63;;;;;;;;;;5097924;28;20512;-75
2023/05/31 10:13:50;;;;;;;4.90;1.88;;;;;;;;;;5116047;28;20034;-75
2023/05/31 10:16:17;;;;;;;4.78;1.70;;;;;;;;;;5115445;28;20027;-74
2023/05/31 10:18:46;;;;;;;6.38;2.08;;;;;;;;;;5115779;28;20068;-73
2023/05/31 10:21:22;;;;;;;4.47;1.80;;;;;;;;;;5097558;28;20377;-75
2023/05/31 10:23:53;;;;;;;4.25;1.60;;;;;;;;;;5115574;28;20098;-73
2023/05/31 10:26:21;;;;;;;7.00;1.60;;;;;;;;;;5115312;28;20491;-74
2023/05/31 10:29:04;;;;;;;9.35;1.85;;;;;;;;;;5115264;28;20464;-73
2023/05/31 10:31:33;;;;;;;10.25;2.17;;;;;;;;;;5114335;28;20015;-72
2023/05/31 10:34:19;;;;;;;3.53;1.60;;;;;;;;;;5115088;28;20098;-72
2023/05/31 10:36:45;;;;;;;6.45;1.88;;;;;;;;;;5115043;28;20015;-73
2023/05/31 10:39:16;;;;;;;6.88;1.70;;;;;;;;;;5114960;28;20026;-72
2023/05/31 10:41:44;;;;;;;3.65;1.90;;;;;;;;;;5079766;28;20468;-72
2023/05/31 10:44:23;;;;;;;4.28;1.75;;;;;;;;;;5080113;28;20448;-76
2023/05/31 10:46:50;;;;;;;3.42;2.00;;;;;;;;;;5115539;28;20051;-74
2023/05/31 10:49:18;;;;;;;4.97;2.00;;;;;;;;;;5096484;28;20095;-75
2023/05/31 10:51:52;;;;;;;6.57;1.92;;;;;;;;;;5114828;28;20111;-71
2023/05/31 10:54:21;;;;;;;3.72;1.70;;;;;;;;;;5114660;28;20031;-72
2023/05/31 10:56:53;;;;;;;6.57;1.88;;;;;;;;;;5114652;28;20065;-72
2023/05/31 10:59:20;;;;;;;6.03;1.73;;;;;;;;;;5114452;28;20019;-76
2023/05/31 11:01:46;;;;;;;12.27;1.77;;;;;;;;;;5114951;28;20483;-75
2023/05/31 11:04:20;;;;;;;3.60;2.20;;;;;;;;;;5114998;28;20372;-76
2023/05/31 11:06:47;;;;;;;3.92;1.63;;;;;;;;;;5080293;28;20034;-75
2023/05/31 11:09:16;;;;;;;6.03;1.65;;;;;;;;;;5096522;28;20024;-74
2023/05/31 11:11:47;;;;;;;3.78;1.73;;;;;;;;;;5096791;28;20106;-74
2023/05/31 11:14:25;;;;;;;4.70;1.90;;;;;;;;;;5096736;28;20165;-72
2023/05/31 11:17:02;;;;;;;7.78;1.88;;;;;;;;;;5113795;28;20110;-75
2023/05/31 11:19:29;;;;;;;5.88;2.03;;;;;;;;;;5114622;28;20023;-75
2023/05/31 11:21:56;;;;;;;4.75;1.70;;;;;;;;;;5114481;28;20016;-76
2023/05/31 11:24:25;;;;;;;2.72;1.70;;;;;;;;;;5096724;28;20350;-71
2023/05/31 11:26:51;;;;;;;4.38;1.50;;;;;;;;;;5113953;28;20038;-71
2023/05/31 11:29:17;;;;;;;8.43;2.08;;;;;;;;;;5096189;28;20020;-72
2023/05/31 11:31:54;;;;;;;2.25;1.50;;;;;;;;;;5113070;28;20050;-72
2023/05/31 11:34:33;;;;;;;4.30;1.63;;;;;;;;;;5114126;28;20102;-75
2023/05/31 11:37:02;;;;;;;6.22;1.77;;;;;;;;;;5114056;28;20047;-72
2023/05/31 11:39:29;;;;;;;3.08;1.75;;;;;;;;;;5113734;28;20066;-73
2023/05/31 11:41:54;;;;;;;5.13;1.65;;;;;;;;;;5114304;28;20047;-75
2023/05/31 11:44:21;;;;;;;4.63;1.88;;;;;;;;;;5096052;28;20042;-74
2023/05/31 11:46:56;;;;;;;5.63;1.50;;;;;;;;;;5114350;28;20022;-72
2023/05/31 11:49:21;;;;;;;8.10;1.80;;;;;;;;;;5114211;28;20350;-74
2023/05/31 11:51:48;;;;;;;3.83;1.92;;;;;;;;;;5113781;28;20022;-75
2023/05/31 11:54:19;;;;;;;4.60;1.90;;;;;;;;;;5114439;28;20072;-74
2023/05/31 11:56:46;;;;;;;3.60;1.52;;;;;;;;;;5114146;28;20095;-74
2023/05/31 11:59:14;;;;;;;6.18;1.80;;;;;;;;;;5113533;28;20078;-73
2023/05/31 12:01:40;;;;;;;6.40;2.75;;;;;;;;;;5114104;28;20024;-74
2023/05/31 12:04:05;;;;;;;6.53;3.13;;;;;;;;;;5113987;28;20024;-71
2023/05/31 12:06:31;;;;;;;6.82;1.73;;;;;;;;;;5113690;28;20782;-73
2023/05/31 12:08:57;;;;;;;5.50;1.80;;;;;;;;;;5114269;28;20380;-75
2023/05/31 12:11:23;;;;;;;3.33;1.75;;;;;;;;;;5114141;28;20050;-73
2023/05/31 12:13:50;;;;;;;4.97;1.65;;;;;;;;;;5113861;28;20461;-74
2023/05/31 12:16:17;;;;;;;4.00;2.00;;;;;;;;;;5113692;28;20110;-73
2023/05/31 12:18:46;;;;;;;2.72;1.50;;;;;;;;;;5113906;28;20407;-74
2023/05/31 12:21:21;;;;;;;4.88;1.90;;;;;;;;;;5095464;28;20042;-73
2023/05/31 12:23:58;;;;;;;5.68;1.67;;;;;;;;;;5113700;28;20024;-73
2023/05/31 12:26:26;;;;;;;4.45;1.70;;;;;;;;;;5113731;28;20470;-74
2023/05/31 12:28:54;;;;;;;3.50;1.98;;;;;;;;;;5113686;28;20380;-73
2023/05/31 12:31:31;;;;;;;3.67;1.45;;;;;;;;;;5113630;28;20088;-72
2023/05/31 12:34:06;;;;;;;7.05;1.75;;;;;;;;;;5113443;28;20475;-73
2023/05/31 12:36:37;;;;;;;9.82;2.30;;;;;;;;;;5113631;28;20023;-73
2023/05/31 12:39:09;;;;;;;6.20;2.80;;;;;;;;;;5113662;28;20453;-72
2023/05/31 12:41:35;;;;;;;;;;;;;;;;;;5114270;28;20020;-71
2023/05/31 12:44:09;;;;;;;6.97;1.83;;;;;;;;;;5113313;28;19908;-73
2023/05/31 12:46:38;;;;;;;5.15;1.98;;;;;;;;;;5112497;28;20055;-73
2023/05/31 12:49:15;;;;;;;2.90;1.50;;;;;;;;;;5112495;28;20019;-73
2023/05/31 12:51:43;;;;;;;3.58;1.80;;;;;;;;;;5112613;28;20028;-73
2023/05/31 12:54:17;;;;;;;5.68;2.05;;;;;;;;;;5094564;28;20097;-73
2023/05/31 12:56:42;;;;;;;7.97;1.83;;;;;;;;;;5097868;28;20440;-73
2023/05/31 12:59:14;;;;;;;3.93;1.83;;;;;;;;;;5115499;28;20115;-73
2023/05/31 13:01:51;;;;;;;4.93;2.00;;;;;;;;;;5075904;28;20290;-72
2023/05/31 13:04:25;;;;;;;4.05;1.85;;;;;;;;;;5075290;28;20024;-73
2023/05/31 13:07:05;;;;;;;5.65;2.10;;;;;;;;;;5075198;28;20476;-70
2023/05/31 13:09:32;;;;;;;3.72;1.88;;;;;;;;;;5074909;28;20028;-70
2023/05/31 13:11:59;;;;;;;2.13;1.83;;;;;;;;;;5075692;28;20079;-71
2023/05/31 13:14:26;;;;;;;3.95;1.50;;;;;;;;;;5076177;28;20032;-69
2023/05/31 13:16:54;;;;;;;4.63;2.17;;;;;;;;;;5075824;28;20071;-69
2023/05/31 13:19:21;;;;;;;3.35;1.33;;;;;;;;;;5075477;28;20024;-69
2023/05/31 13:21:47;;;;;;;3.25;1.58;;;;;;;;;;5075582;28;20078;-70
2023/05/31 13:24:17;;;;;;;5.22;1.83;;;;;;;;;;5076092;28;20021;-69
2023/05/31 13:26:45;;;;;;;4.25;1.85;;;;;;;;;;5076233;28;20020;-69
2023/05/31 13:29:10;;;;;;;4.32;1.40;;;;;;;;;;5074621;28;20115;-69
2023/05/31 13:31:36;;;;;;;3.17;2.00;;;;;;;;;;5075410;28;20071;-69
2023/05/31 13:34:01;;;;;;;3.88;1.67;;;;;;;;;;5074291;28;20627;-70
2023/05/31 13:36:27;;;;;;;4.82;2.00;;;;;;;;;;5075700;28;20020;-70
2023/05/31 13:38:53;;;;;;;3.90;1.63;;;;;;;;;;5075305;28;20042;-68
2023/05/31 13:41:22;;;;;;;3.42;1.60;;;;;;;;;;5075532;28;20024;-68
2023/05/31 13:43:48;;;;;;;4.63;2.13;;;;;;;;;;5075776;28;20020;-69
2023/05/31 13:46:15;;;;;;;3.33;1.40;;;;;;;;;;5075757;28;20562;-69
2023/05/31 13:48:40;;;;;;;3.55;2.10;;;;;;;;;;5074859;28;20067;-69
2023/05/31 13:51:07;;;;;;;5.43;1.63;;;;;;;;;;5076026;28;20024;-69
2023/05/31 13:53:32;;;;;;;4.22;1.85;;;;;;;;;;5074248;28;20108;-69
2023/05/31 13:55:58;;;;;;;3.13;1.67;;;;;;;;;;5075499;28;20095;-72
2023/05/31 13:58:25;;;;;;;22.90;3.65;;;;;;;;;;5074371;28;20020;-72
2023/05/31 14:00:50;;;;;;;3.55;1.58;;;;;;;;;;5087719;28;20052;-71
2023/05/31 14:03:30;;;;;;;6.72;1.90;;;;;;;;;;5095874;28;20035;-71
2023/05/31 14:05:57;;;;;;;2.60;1.50;;;;;;;;;;5091791;28;20043;-72
2023/05/31 14:08:22;;;;;;;2.58;1.80;;;;;;;;;;5093843;28;20058;-72
2023/05/31 14:10:49;;;;;;;8.02;1.80;;;;;;;;;;5094348;28;20028;-72
2023/05/31 14:13:18;;;;;;;6.53;1.80;;;;;;;;;;5095669;28;20069;-76
2023/05/31 14:15:50;;;;;;;4.30;1.40;;;;;;;;;;5100589;28;20277;-75
2023/05/31 14:18:17;;;;;;;4.10;1.92;;;;;;;;;;5094914;28;20073;-74
2023/05/31 14:21:00;;;;;;;6.10;1.70;;;;;;;;;;5082058;28;20381;-75
2023/05/31 14:23:32;;;;;;;2.90;1.42;;;;;;;;;;5091884;28;20095;-74
2023/05/31 14:26:00;;;;;;;4.13;1.55;;;;;;;;;;5094812;28;20072;-75
2023/05/31 14:28:26;;;;;;;3.95;1.63;;;;;;;;;;5094983;28;20480;-76
2023/05/31 14:30:57;;;;;;;6.38;1.60;;;;;;;;;;5086002;28;20571;-74
2023/05/31 14:33:32;;;;;;;6.35;1.92;;;;;;;;;;5086559;28;20058;-73
2023/05/31 14:35:58;;;;;;;3.70;1.67;;;;;;;;;;5074836;28;20027;-74
2023/05/31 14:38:24;;;;;;;2.63;1.40;;;;;;;;;;5074765;28;20455;-74
2023/05/31 14:40:51;;;;;;;5.20;1.35;;;;;;;;;;5074376;28;20072;-74
2023/05/31 14:43:22;;;;;;;3.28;1.35;;;;;;;;;;5074051;28;20074;-74
2023/05/31 14:45:48;;;;;;;3.42;1.38;;;;;;;;;;5070480;28;20537;-76
2023/05/31 14:48:18;;;;;;;1.90;1.50;;;;;;;;;;5073618;28;20115;-74